Time;durP1;ratioP1;P1;durP2;ratioP2;P2;SDS_P1;SDS_P2;PMS_P1;PMS_P2;Temp;Humidity;BMP_temperature;BMP_pressure;BME280_temperature;BME280_humidity;BME280_pressure;Samples;Min_cycle;Max_cycle;Signal;HPM_P1;HPM_P2
2021/01/19 00:01:28;;;;;;;11.53;6.30;;;3.20;99.90;;;4.16;100.00;100374.81;5051665;28;20250;-67
2021/01/19 00:03:55;;;;;;;12.03;6.17;;;3.30;99.90;;;4.09;100.00;100368.53;5051257;28;20668;-67
2021/01/19 00:06:23;;;;;;;9.03;5.70;;;3.30;99.90;;;3.98;100.00;100370.72;5051784;28;20633;-67
2021/01/19 00:08:50;;;;;;;7.83;5.80;;;3.20;99.90;;;3.94;100.00;100366.75;5051857;28;20206;-67
2021/01/19 00:11:18;;;;;;;8.77;5.30;;;3.20;99.90;;;4.04;100.00;100364.72;5051787;28;20300;-68
2021/01/19 00:13:45;;;;;;;7.80;5.23;;;3.20;99.90;;;4.11;100.00;100368.34;5051718;28;20290;-67
2021/01/19 00:16:12;;;;;;;9.27;5.90;;;3.20;99.90;;;4.16;100.00;100377.47;5051484;28;20636;-67
2021/01/19 00:18:39;;;;;;;8.10;5.80;;;3.20;99.90;;;4.04;100.00;100372.72;5051000;28;20247;-67
2021/01/19 00:21:07;;;;;;;6.83;5.53;;;3.20;99.90;;;4.21;100.00;100371.66;5051692;28;20669;-67
2021/01/19 00:23:35;;;;;;;8.17;5.50;;;3.30;99.90;;;4.22;100.00;100376.81;5051507;28;20297;-67
2021/01/19 00:26:03;;;;;;;8.67;5.30;;;3.30;99.90;;;4.10;100.00;100372.00;5051607;28;20199;-67
2021/01/19 00:28:30;;;;;;;9.40;5.77;;;3.20;99.90;;;4.18;100.00;100366.66;5051435;28;20204;-66
2021/01/19 00:30:57;;;;;;;9.33;6.03;;;3.30;99.90;;;4.33;100.00;100360.41;5051492;28;20275;-67
2021/01/19 00:33:25;;;;;;;9.30;6.53;;;3.30;99.90;;;4.28;100.00;100357.44;5053268;28;20390;-67
2021/01/19 00:35:52;;;;;;;9.53;7.23;;;3.40;99.90;;;4.17;100.00;100362.31;5055694;28;20229;-67
2021/01/19 00:38:20;;;;;;;8.70;6.47;;;3.30;99.90;;;4.13;100.00;100359.16;5055404;28;20242;-67
2021/01/19 00:40:48;;;;;;;7.80;6.50;;;3.30;99.90;;;4.06;100.00;100365.38;5055626;28;20280;-67
2021/01/19 00:43:15;;;;;;;8.13;6.43;;;3.30;99.90;;;4.28;100.00;100356.63;5055393;28;20207;-67
2021/01/19 00:45:42;;;;;;;11.57;7.63;;;3.30;99.90;;;4.12;100.00;100351.34;5055225;28;20283;-67
2021/01/19 00:48:10;;;;;;;8.17;5.97;;;3.20;99.90;;;4.24;100.00;100348.13;5055056;28;20233;-67
2021/01/19 00:50:38;;;;;;;9.80;6.50;;;3.30;99.90;;;3.94;100.00;100353.44;5055110;28;20225;-67
2021/01/19 00:53:05;;;;;;;8.40;5.87;;;3.20;99.90;;;4.16;100.00;100350.00;5055376;28;20626;-66
2021/01/19 00:55:32;;;;;;;7.97;5.53;;;3.20;99.90;;;4.30;99.66;100338.59;5055085;28;20292;-66
2021/01/19 00:58:00;;;;;;;7.80;5.50;;;3.30;99.90;;;4.24;99.81;100341.97;5054777;28;20736;-66
2021/01/19 01:00:28;;;;;;;9.40;5.67;;;3.30;99.90;;;4.24;99.83;100341.97;5055096;28;20702;-67
2021/01/19 01:02:55;;;;;;;7.00;5.30;;;3.30;99.90;;;4.10;100.00;100346.19;5054983;28;20290;-67
2021/01/19 01:05:22;;;;;;;8.17;5.83;;;3.30;99.90;;;4.06;100.00;100338.72;5055051;28;20264;-67
2021/01/19 01:07:50;;;;;;;6.37;4.90;;;3.30;99.90;;;4.14;100.00;100336.84;5054972;28;20262;-68
2021/01/19 01:10:18;;;;;;;8.93;5.83;;;3.20;99.90;;;3.98;100.00;100334.25;5054650;28;20213;-66
2021/01/19 01:12:46;;;;;;;8.10;6.00;;;3.20;99.90;;;4.17;99.89;100333.00;5054608;28;20639;-67
2021/01/19 01:15:22;;;;;;;9.93;6.03;;;3.20;99.90;;;4.17;99.98;100335.66;5054874;28;20631;-66
2021/01/19 01:17:49;;;;;;;8.97;6.40;;;3.20;99.90;;;4.16;100.00;100339.34;5034948;28;20229;-67
2021/01/19 01:20:16;;;;;;;10.13;7.60;;;3.30;99.90;;;3.98;100.00;100328.09;5034665;28;20731;-66
2021/01/19 01:22:45;;;;;;;8.67;6.20;;;3.20;99.90;;;4.07;100.00;100327.91;5034539;28;20334;-67
2021/01/19 01:25:15;;;;;;;9.07;5.97;;;3.20;99.90;;;4.13;100.00;100327.19;5034772;28;20228;-67
2021/01/19 01:27:44;;;;;;;8.17;6.13;;;3.20;99.90;;;4.14;100.00;100328.88;5035145;28;20259;-67
2021/01/19 01:30:17;;;;;;;8.27;6.40;;;3.20;99.90;;;4.25;99.74;100327.63;5034668;28;20194;-67
2021/01/19 01:32:47;;;;;;;7.93;6.87;;;3.30;99.90;;;4.18;99.83;100322.16;5034379;28;20197;-68
2021/01/19 01:35:15;;;;;;;7.43;5.53;;;3.30;99.90;;;4.17;100.00;100323.19;5034679;28;20237;-67
2021/01/19 01:37:47;;;;;;;7.37;5.70;;;3.20;99.90;;;4.00;100.00;100321.59;5034439;28;20238;-67
2021/01/19 01:40:19;;;;;;;8.03;5.53;;;3.20;99.90;;;4.18;100.00;100313.34;5034658;28;20203;-66
2021/01/19 01:42:49;;;;;;;6.43;5.60;;;3.20;99.90;;;4.18;99.86;100316.03;5034923;28;20188;-68
2021/01/19 01:45:20;;;;;;;7.80;5.60;;;3.20;99.90;;;4.11;99.57;100318.53;5034280;28;20238;-67
2021/01/19 01:47:50;;;;;;;7.13;5.87;;;3.30;99.90;;;4.37;99.31;100320.88;5033963;28;20193;-67
2021/01/19 01:50:18;;;;;;;8.93;5.50;;;3.30;99.90;;;4.14;100.00;100315.53;5034308;28;20226;-68
2021/01/19 01:52:46;;;;;;;7.93;5.80;;;3.30;99.90;;;4.24;99.39;100313.47;5034019;28;20206;-68
2021/01/19 01:55:16;;;;;;;8.53;5.90;;;3.30;99.90;;;4.34;99.03;100306.09;5034073;28;20286;-66
2021/01/19 01:57:43;;;;;;;7.50;5.83;;;3.40;99.90;;;4.20;99.40;100300.66;5034235;28;20306;-67
2021/01/19 02:00:13;;;;;;;7.00;6.17;;;3.40;99.90;;;4.24;99.14;100296.66;5033477;28;20235;-67
2021/01/19 02:02:52;;;;;;;7.80;6.50;;;3.40;99.90;;;4.37;98.89;100291.56;5033444;28;20201;-67
2021/01/19 02:05:20;;;;;;;10.23;6.60;;;3.40;99.90;;;4.30;98.94;100291.44;5034339;28;20298;-67
2021/01/19 02:08:06;;;;;;;7.13;5.80;;;3.40;99.90;;;4.29;98.96;100292.44;5033804;28;20238;-66
2021/01/19 02:10:50;;;;;;;7.57;5.87;;;3.40;99.90;;;4.26;98.53;100284.78;5034197;28;20222;-67
2021/01/19 02:13:33;;;;;;;7.57;6.00;;;3.40;99.90;;;4.32;98.58;100288.59;5033901;28;20186;-67
2021/01/19 02:16:23;;;;;;;6.03;5.10;;;3.40;99.90;;;4.31;98.63;100282.41;5039080;28;20226;-68
2021/01/19 02:19:17;;;;;;;7.60;5.90;;;3.40;99.90;;;4.37;98.45;100280.88;5053674;28;20218;-67
2021/01/19 02:22:05;;;;;;;7.57;5.73;;;3.50;99.90;;;4.31;98.49;100274.41;5053857;28;20276;-67
2021/01/19 02:24:42;;;;;;;7.70;6.17;;;3.50;99.90;;;4.31;98.89;100269.09;5053698;28;20248;-67
2021/01/19 02:27:33;;;;;;;7.23;5.37;;;3.40;99.90;;;4.32;98.88;100273.44;5053454;28;20238;-67
2021/01/19 02:30:36;;;;;;;7.87;5.37;;;3.40;99.90;;;4.35;98.64;100274.91;5053382;28;20615;-67
2021/01/19 02:33:10;;;;;;;6.00;5.23;;;3.50;99.90;;;4.19;98.94;100289.19;5033192;28;20477;-67
2021/01/19 02:35:54;;;;;;;7.87;5.17;;;3.40;99.90;;;4.28;99.10;100279.31;5053834;28;20216;-66
2021/01/19 02:38:34;;;;;;;6.90;4.87;;;3.40;99.90;;;4.38;98.12;100271.91;5053334;28;20730;-67
2021/01/19 02:41:02;;;;;;;7.07;5.33;;;3.40;99.90;;;4.19;98.83;100278.53;5053233;28;20645;-67
2021/01/19 02:43:31;;;;;;;6.57;4.93;;;3.40;99.90;;;4.33;98.75;100276.94;5053218;28;20240;-67
2021/01/19 02:45:58;;;;;;;7.27;5.33;;;3.40;99.90;;;4.43;97.69;100265.00;5053128;28;20310;-66
2021/01/19 02:48:27;;;;;;;8.90;5.83;;;3.40;99.90;;;4.31;97.58;100265.63;5053019;28;20225;-66
2021/01/19 02:50:54;;;;;;;7.10;5.83;;;3.50;99.90;;;4.47;97.93;100271.66;5052998;28;20245;-66
2021/01/19 02:53:22;;;;;;;7.47;5.70;;;3.50;99.90;;;4.47;97.31;100270.81;5053193;28;20255;-67
2021/01/19 02:55:52;;;;;;;7.27;5.70;;;3.50;99.90;;;4.50;97.56;100270.50;5052604;28;20284;-67
2021/01/19 02:58:39;;;;;;;6.77;6.03;;;3.50;99.90;;;4.29;98.09;100271.13;5052917;28;20211;-67
2021/01/19 03:01:15;;;;;;;8.07;6.00;;;3.50;99.90;;;4.33;97.96;100264.41;5052879;28;20183;-67
2021/01/19 03:03:45;;;;;;;6.80;5.73;;;3.40;99.90;;;4.36;97.70;100260.56;5052506;28;20653;-67
2021/01/19 03:06:17;;;;;;;8.57;6.30;;;3.50;99.90;;;4.41;98.01;100260.88;5052807;28;20756;-67
2021/01/19 03:08:47;;;;;;;7.03;4.97;;;3.40;99.90;;;4.40;97.29;100251.19;5053034;28;20716;-67
2021/01/19 03:11:16;;;;;;;10.40;5.80;;;3.50;99.90;;;4.43;97.61;100248.19;5053082;28;20616;-68
2021/01/19 03:13:45;;;;;;;8.30;6.13;;;3.50;99.90;;;4.29;98.22;100249.78;5052446;28;20193;-68
2021/01/19 03:16:16;;;;;;;7.23;5.37;;;3.40;99.90;;;4.33;97.52;100253.75;5052528;28;20234;-68
2021/01/19 03:18:46;;;;;;;5.87;4.70;;;3.40;99.90;;;4.30;97.63;100245.28;5052180;28;20613;-67
2021/01/19 03:21:14;;;;;;;6.80;4.93;;;3.40;99.90;;;4.22;97.50;100246.19;5052624;28;20244;-67
2021/01/19 03:23:41;;;;;;;6.13;5.23;;;3.40;99.90;;;4.43;97.30;100241.00;5052522;28;20615;-66
2021/01/19 03:26:09;;;;;;;7.03;4.90;;;3.40;99.90;;;4.33;97.16;100242.28;5052740;28;20313;-67
2021/01/19 03:28:37;;;;;;;7.07;4.60;;;3.50;99.90;;;4.15;98.48;100239.03;5051998;28;20671;-67
2021/01/19 03:31:04;;;;;;;5.43;4.47;;;3.40;99.90;;;4.33;98.06;100240.41;5052127;28;20226;-67
2021/01/19 03:33:33;;;;;;;4.80;4.30;;;3.40;99.90;;;4.32;97.63;100236.09;5051915;28;20260;-67
2021/01/19 03:36:01;;;;;;;4.67;4.00;;;3.40;99.90;;;4.01;99.37;100237.97;5052279;28;20205;-67
2021/01/19 03:38:28;;;;;;;5.83;4.53;;;3.30;99.90;;;4.27;98.01;100229.63;5052356;28;20232;-67
2021/01/19 03:40:55;;;;;;;5.67;4.57;;;3.30;99.90;;;4.10;98.15;100223.59;5052280;28;20339;-67
2021/01/19 03:43:22;;;;;;;6.33;4.43;;;3.30;99.90;;;3.92;99.21;100231.03;5051858;28;20665;-66
2021/01/19 03:45:50;;;;;;;5.93;4.50;;;3.20;99.90;;;3.88;99.49;100227.06;5051967;28;20323;-67
2021/01/19 03:48:17;;;;;;;5.40;4.70;;;3.10;99.90;;;4.25;98.23;100224.47;5051874;28;20293;-67
2021/01/19 03:50:45;;;;;;;5.63;4.23;;;3.20;99.90;;;4.26;97.25;100226.13;5051653;28;20320;-67
2021/01/19 03:53:13;;;;;;;6.90;4.07;;;3.30;99.90;;;4.22;98.70;100219.50;5052131;28;20207;-67
2021/01/19 03:55:40;;;;;;;4.93;4.37;;;3.30;99.90;;;4.14;98.21;100211.59;5051805;28;20204;-67
2021/01/19 03:58:07;;;;;;;5.97;4.43;;;3.30;99.90;;;4.35;97.46;100213.56;5051769;28;20257;-66
2021/01/19 04:00:35;;;;;;;6.37;4.23;;;3.30;99.90;;;4.27;98.37;100216.31;5051511;28;20201;-67
2021/01/19 04:03:02;;;;;;;8.53;4.27;;;3.30;99.90;;;4.27;97.83;100210.97;5051639;28;20229;-68
2021/01/19 04:05:30;;;;;;;10.30;7.03;;;3.40;99.90;;;4.49;97.05;100202.97;5051526;28;20250;-67
2021/01/19 04:07:57;;;;;;;6.80;5.67;;;3.40;99.90;;;4.48;96.75;100198.63;5051047;28;20543;-67
2021/01/19 04:10:25;;;;;;;4.90;4.40;;;3.40;99.90;;;4.53;95.85;100193.59;5051789;28;20285;-66
2021/01/19 04:12:52;;;;;;;5.43;4.20;;;3.40;99.90;;;4.30;97.16;100199.94;5051684;28;20264;-67
2021/01/19 04:15:20;;;;;;;5.90;4.07;;;3.40;99.90;;;4.25;97.33;100197.00;5051625;28;20233;-67
2021/01/19 04:17:47;;;;;;;6.93;4.77;;;3.30;99.90;;;4.11;98.55;100187.13;5031527;28;20691;-67
2021/01/19 04:20:14;;;;;;;6.40;5.70;;;3.30;99.90;;;4.14;98.84;100186.75;5031880;28;20253;-66
2021/01/19 04:22:41;;;;;;;7.70;5.23;;;3.20;99.90;;;4.30;97.83;100184.78;5031800;28;20208;-68
2021/01/19 04:25:10;;;;;;;6.43;4.60;;;3.20;99.90;;;4.36;97.53;100177.91;5031624;28;20219;-67
2021/01/19 04:27:38;;;;;;;4.77;3.70;;;3.30;99.90;;;4.40;96.98;100169.38;5031828;28;20293;-68
2021/01/19 04:30:08;;;;;;;5.67;4.50;;;3.40;99.90;;;4.36;97.53;100162.75;5031633;28;20237;-68
2021/01/19 04:32:38;;;;;;;5.10;4.20;;;3.40;99.90;;;4.32;97.92;100172.13;5031218;28;20267;-67
2021/01/19 04:35:07;;;;;;;6.23;4.40;;;3.40;99.90;;;4.52;96.49;100173.25;5031513;28;20207;-67
2021/01/19 04:37:34;;;;;;;5.53;4.30;;;3.40;99.90;;;4.35;96.58;100171.75;5031661;28;20227;-67
2021/01/19 04:40:04;;;;;;;5.13;4.47;;;3.50;99.90;;;4.35;97.38;100161.09;5031409;28;20205;-66
2021/01/19 04:42:34;;;;;;;6.50;4.40;;;3.40;99.90;;;4.34;97.14;100169.25;5031898;28;20231;-67
2021/01/19 04:45:06;;;;;;;4.87;4.27;;;3.40;99.90;;;4.40;96.96;100171.19;5031669;28;20217;-67
2021/01/19 04:47:35;;;;;;;6.93;4.93;;;3.40;99.90;;;4.37;97.53;100164.41;5031113;28;20279;-68
2021/01/19 04:50:06;;;;;;;6.77;4.47;;;3.40;99.90;;;4.49;96.03;100165.63;5031063;28;20774;-67
2021/01/19 04:52:35;;;;;;;5.43;4.60;;;3.50;99.90;;;4.17;97.43;100171.25;5031685;28;20252;-66
2021/01/19 04:55:09;;;;;;;6.73;4.47;;;3.40;99.90;;;4.28;97.48;100167.31;5031556;28;20630;-67
2021/01/19 04:57:39;;;;;;;7.57;4.50;;;3.40;99.90;;;4.34;97.20;100171.94;5031662;28;20236;-67
2021/01/19 05:00:12;;;;;;;5.27;4.23;;;3.40;99.90;;;4.28;97.86;100170.00;5031557;28;20207;-67
2021/01/19 05:03:16;;;;;;;6.30;4.53;;;3.40;99.90;;;4.20;98.07;100172.69;5031060;28;20190;-67
2021/01/19 05:06:01;;;;;;;6.50;4.40;;;3.40;99.90;;;4.45;97.16;100168.81;5031133;28;20233;-67
2021/01/19 05:08:58;;;;;;;4.73;4.10;;;3.40;99.90;;;4.50;96.90;100161.13;5031417;28;20593;-67
2021/01/19 05:11:30;;;;;;;6.03;4.23;;;3.50;99.90;;;4.36;97.54;100162.75;5027276;28;20198;-67
2021/01/19 05:14:00;;;;;;;4.90;4.17;;;3.50;99.90;;;4.19;98.63;100150.56;5031246;28;20630;-66
2021/01/19 05:16:32;;;;;;;5.07;4.23;;;3.40;99.90;;;4.32;98.08;100153.44;5039920;28;20201;-66
2021/01/19 05:19:00;;;;;;;6.00;4.67;;;3.40;99.90;;;4.33;98.27;100146.28;5052346;28;20208;-66
2021/01/19 05:21:28;;;;;;;5.63;4.40;;;3.40;99.90;;;4.51;96.81;100141.44;5054957;28;20205;-67
2021/01/19 05:23:56;;;;;;;5.63;4.57;;;3.50;99.90;;;4.54;96.73;100149.09;5054994;28;20294;-67
2021/01/19 05:26:24;;;;;;;5.00;4.37;;;3.50;99.90;;;4.26;98.27;100140.81;5054742;28;20253;-67
2021/01/19 05:28:54;;;;;;;5.20;4.60;;;3.50;99.90;;;4.29;98.26;100135.16;5054698;28;20243;-67
2021/01/19 05:31:25;;;;;;;4.80;4.30;;;3.50;99.90;;;4.33;97.61;100124.97;5054441;28;20203;-67
2021/01/19 05:34:06;;;;;;;5.30;4.53;;;3.40;99.90;;;4.47;97.61;100124.13;5054861;28;20185;-67
2021/01/19 05:36:44;;;;;;;6.43;4.63;;;3.40;99.90;;;4.44;97.64;100127.19;5054522;28;20635;-67
2021/01/19 05:39:15;;;;;;;6.17;4.67;;;3.40;99.90;;;4.37;97.76;100128.91;5054722;28;20226;-67
2021/01/19 05:41:44;;;;;;;6.73;4.17;;;3.40;99.90;;;4.43;97.81;100122.88;5054107;28;20570;-67
2021/01/19 05:44:15;;;;;;;6.40;4.60;;;3.40;99.90;;;4.48;97.54;100112.47;5054219;28;20530;-66
2021/01/19 05:46:48;;;;;;;4.50;4.10;;;3.50;99.90;;;4.60;96.55;100116.38;5054475;28;20731;-67
2021/01/19 05:49:19;;;;;;;5.93;4.30;;;3.50;99.90;;;4.58;96.75;100113.84;5054332;28;20709;-67
2021/01/19 05:51:49;;;;;;;4.50;4.10;;;3.60;99.90;;;4.44;97.62;100117.34;5054357;28;20277;-67
2021/01/19 05:54:28;;;;;;;4.90;4.40;;;3.50;99.90;;;4.41;97.87;100106.22;5054107;28;20201;-67
2021/01/19 05:57:02;;;;;;;4.10;3.70;;;3.60;99.90;;;4.37;97.67;100107.56;5054410;28;20235;-67
2021/01/19 05:59:36;;;;;;;5.80;3.87;;;3.50;99.90;;;4.37;97.49;100099.56;5054236;28;20331;-66
2021/01/19 06:02:07;;;;;;;5.23;4.50;;;3.50;99.90;;;4.62;96.47;100091.16;5053868;28;20218;-67
2021/01/19 06:04:42;;;;;;;4.93;3.90;;;3.60;99.90;;;4.59;96.37;100088.00;5053876;28;20218;-67
2021/01/19 06:07:11;;;;;;;5.90;4.23;;;3.60;99.90;;;4.61;96.21;100080.66;5054082;28;20236;-67
2021/01/19 06:09:41;;;;;;;4.23;3.83;;;3.70;99.90;;;4.45;96.87;100079.00;5054140;28;20185;-66
2021/01/19 06:12:09;;;;;;;5.93;4.10;;;3.60;99.90;;;4.56;96.72;100072.38;5054034;28;20207;-66
2021/01/19 06:14:38;;;;;;;5.37;4.20;;;3.60;99.90;;;4.64;96.69;100075.78;5054000;28;20210;-67
2021/01/19 06:17:14;;;;;;;5.63;4.17;;;3.60;99.90;;;4.47;97.09;100060.97;5053368;28;20675;-68
2021/01/19 06:19:43;;;;;;;5.27;4.13;;;3.60;99.90;;;4.51;97.48;100062.28;5053860;28;20183;-67
2021/01/19 06:22:14;;;;;;;6.00;4.20;;;3.60;99.90;;;4.54;96.78;100061.91;5053512;28;20663;-67
2021/01/19 06:24:46;;;;;;;5.80;4.67;;;3.60;99.90;;;4.51;96.66;100062.28;5053705;28;20243;-67
2021/01/19 06:27:28;;;;;;;4.87;4.37;;;3.60;99.90;;;4.39;97.14;100060.22;5053857;28;20588;-67
2021/01/19 06:30:46;;;;;;;5.27;4.77;;;3.60;99.90;;;4.55;97.32;100044.06;5053156;28;20189;-71
2021/01/19 06:33:22;;;;;;;7.03;4.70;;;3.50;99.90;;;4.43;96.94;100041.00;5057335;22;20227;-67
2021/01/19 06:35:55;;;;;;;10.10;5.30;;;3.60;99.90;;;4.50;96.84;100041.13;5033294;28;20273;-67
2021/01/19 06:38:23;;;;;;;6.10;4.63;;;3.60;99.90;;;4.49;97.24;100042.97;5033560;28;20258;-67
2021/01/19 06:40:59;;;;;;;8.00;4.93;;;3.60;99.90;;;4.51;97.31;100038.28;5033290;28;20674;-67
2021/01/19 06:43:35;;;;;;;5.93;4.50;;;3.60;99.90;;;4.39;97.85;100033.56;5033091;28;20671;-67
2021/01/19 06:46:08;;;;;;;6.50;5.13;;;3.50;99.90;;;4.45;96.54;100020.31;5032765;28;20251;-67
2021/01/19 06:48:36;;;;;;;5.83;4.83;;;3.60;99.90;;;4.39;97.23;100015.75;5033204;28;20188;-67
2021/01/19 06:51:10;;;;;;;6.77;5.37;;;3.50;99.90;;;4.48;96.75;100016.47;5033431;28;20632;-66
2021/01/19 06:53:46;;;;;;;8.47;5.50;;;3.60;99.90;;;4.37;97.01;100017.75;5032793;28;20559;-67
2021/01/19 06:56:15;;;;;;;6.47;5.10;;;3.50;99.90;;;4.28;97.41;100005.50;5033168;28;20237;-67
2021/01/19 06:58:50;;;;;;;8.80;5.07;;;3.50;99.90;;;4.46;95.70;99998.00;5032462;28;20233;-67
2021/01/19 07:01:19;;;;;;;6.50;5.13;;;3.50;99.90;;;4.40;95.99;99996.06;5032619;28;20220;-67
2021/01/19 07:03:49;;;;;;;6.20;4.13;;;3.60;99.90;;;4.35;95.83;99992.28;5032623;28;20212;-66
2021/01/19 07:06:17;;;;;;;6.50;4.17;;;3.50;99.90;;;4.28;96.31;99989.50;5032877;28;20219;-67
2021/01/19 07:09:50;;;;;;;6.80;4.13;;;3.50;99.90;;;4.30;95.97;99984.84;5033273;28;20300;-67
2021/01/19 07:12:20;;;;;;;5.97;4.07;;;3.50;99.90;;;4.39;95.06;99983.75;5033249;28;20240;-68
2021/01/19 07:15:05;;;;;;;6.17;4.97;;;3.50;99.90;;;4.31;95.73;99983.81;5032482;28;20197;-67
2021/01/19 07:18:18;;;;;;;7.13;4.63;;;3.40;99.90;;;4.34;95.29;99972.81;5050538;28;20193;-67
2021/01/19 07:21:05;;;;;;;6.53;4.20;;;3.40;99.90;;;4.30;94.26;99965.34;5052784;28;20208;-67
2021/01/19 07:24:16;;;;;;;4.83;4.07;;;3.50;99.90;;;4.41;93.33;99954.22;5052666;28;20211;-65
2021/01/19 07:26:46;;;;;;;7.03;3.77;;;3.50;99.90;;;4.42;93.00;99946.03;5052578;28;20223;-66
2021/01/19 07:29:16;;;;;;;5.10;3.63;;;3.50;99.90;;;4.29;92.99;99950.38;5052128;28;20247;-67
2021/01/19 07:31:43;;;;;;;5.43;3.60;;;3.50;99.90;;;4.31;93.31;99941.16;5052451;28;20639;-68
2021/01/19 07:34:13;;;;;;;5.60;3.87;;;3.50;99.90;;;4.40;92.53;99953.38;5051708;28;20705;-70
2021/01/19 07:36:40;;;;;;;6.17;4.03;;;3.50;99.90;;;4.52;91.83;99943.06;5052653;28;20249;-69
2021/01/19 07:39:16;;;;;;;5.03;3.47;;;3.50;99.90;;;4.60;91.94;99943.78;5052168;28;20293;-70
2021/01/19 07:41:43;;;;;;;7.37;4.17;;;3.60;99.90;;;4.57;91.50;99938.00;5052096;28;20240;-69
2021/01/19 07:44:24;;;;;;;5.07;3.40;;;3.60;99.90;;;4.66;90.66;99943.06;5051772;28;20260;-67
2021/01/19 07:47:15;;;;;;;6.07;3.60;;;3.70;99.90;;;4.65;90.92;99937.91;5051825;28;20209;-68
2021/01/19 07:49:43;;;;;;;4.07;3.03;;;3.70;99.90;;;4.58;90.90;99942.34;5051976;28;20213;-68
2021/01/19 07:52:13;;;;;;;5.07;2.97;;;3.80;99.90;;;4.57;90.72;99938.84;5051954;28;20286;-67
2021/01/19 07:54:42;;;;;;;5.37;3.00;;;3.70;99.90;;;4.68;89.34;99924.19;5035143;28;20226;-67
2021/01/19 07:57:15;;;;;;;6.13;2.90;;;3.70;99.90;;;4.77;88.71;99912.38;5031768;28;20835;-68
2021/01/19 07:59:44;;;;;;;4.93;2.73;;;3.80;99.90;;;4.71;88.76;99913.97;5031771;28;20201;-68
2021/01/19 08:02:22;;;;;;;3.77;2.90;;;3.80;99.90;;;4.79;88.79;99907.69;5031687;28;20258;-68
2021/01/19 08:05:00;;;;;;;4.93;2.53;;;3.80;99.90;;;4.73;88.03;99898.63;5031344;28;20194;-67
2021/01/19 08:07:41;;;;;;;6.13;2.90;;;3.90;99.90;;;4.62;88.90;99904.44;5031999;28;20220;-68
2021/01/19 08:10:23;;;;;;;3.43;2.60;;;3.90;99.90;;;4.66;88.23;99892.38;5031532;28;20221;-68
2021/01/19 08:12:53;;;;;;;4.23;3.00;;;3.80;99.90;;;4.61;88.88;99880.63;5031498;28;20220;-67
2021/01/19 08:15:22;;;;;;;3.50;2.80;;;3.80;99.90;;;4.73;87.70;99885.28;5031694;28;20266;-66
2021/01/19 08:17:52;;;;;;;5.50;2.57;;;3.90;99.90;;;4.66;88.05;99879.03;5012041;28;20458;-67
2021/01/19 08:20:31;;;;;;;4.83;2.80;;;3.90;99.90;;;4.69;87.88;99876.00;5011986;28;20254;-66
2021/01/19 08:23:12;;;;;;;3.00;2.20;;;3.90;99.90;;;4.71;87.79;99867.78;5021492;28;20207;-66
2021/01/19 08:25:41;;;;;;;4.57;2.43;;;3.90;99.90;;;4.79;86.71;99870.34;5046558;28;20207;-66
2021/01/19 08:28:10;;;;;;;4.17;2.70;;;3.90;99.90;;;4.92;86.25;99855.28;5027568;28;20230;-67
2021/01/19 08:30:40;;;;;;;2.93;2.30;;;4.00;99.90;;;4.84;86.26;99858.09;5027752;28;20710;-67
2021/01/19 08:33:08;;;;;;;4.40;2.67;;;4.00;99.90;;;4.89;85.64;99861.00;5027370;28;20284;-68
2021/01/19 08:35:39;;;;;;;3.67;2.73;;;4.00;99.90;;;4.93;85.61;99845.44;5033113;28;20245;-69
2021/01/19 08:38:07;;;;;;;5.37;2.73;;;4.00;99.90;;;4.84;86.43;99828.75;5043771;28;20203;-61
2021/01/19 08:40:37;;;;;;;4.00;2.30;;;4.00;99.90;;;4.78;86.27;99829.50;5027856;28;20255;-62
2021/01/19 08:43:07;;;;;;;4.60;2.40;;;4.00;99.90;;;4.73;85.89;99834.59;5037911;28;20291;-61
2021/01/19 08:45:38;;;;;;;5.67;2.30;;;4.00;99.90;;;4.76;87.05;99818.19;5047914;28;20220;-63
2021/01/19 08:48:09;;;;;;;4.97;2.53;;;4.00;99.90;;;4.71;86.28;99825.94;5048178;28;20201;-63
2021/01/19 08:50:40;;;;;;;4.77;1.90;;;4.00;99.90;;;4.90;85.13;99814.63;5046286;28;20186;-65
2021/01/19 08:53:09;;;;;;;3.00;2.03;;;4.00;99.90;;;4.93;84.39;99811.59;5027402;28;20188;-65
2021/01/19 08:55:38;;;;;;;6.60;2.50;;;4.10;99.90;;;4.98;84.38;99808.34;5031626;28;20586;-66
2021/01/19 08:58:07;;;;;;;3.00;2.17;;;4.10;99.90;;;5.09;84.61;99798.97;5031264;28;20214;-69
2021/01/19 09:00:37;;;;;;;4.10;2.03;;;4.20;99.90;;;5.27;84.42;99804.66;5031915;28;20548;-71
2021/01/19 09:03:13;;;;;;;5.27;2.20;;;4.30;99.90;;;5.17;82.86;99790.81;5031609;28;20681;-69
2021/01/19 09:06:01;;;;;;;2.67;2.00;;;4.30;99.90;;;5.29;82.56;99789.28;5031732;28;20219;-69
2021/01/19 09:08:30;;;;;;;4.47;2.17;;;4.40;99.90;;;5.46;82.15;99778.09;5039592;28;20511;-64
2021/01/19 09:11:06;;;;;;;3.43;1.87;;;4.50;99.90;;;5.48;81.65;99777.91;5051208;28;20201;-64
2021/01/19 09:13:49;;;;;;;4.17;2.23;;;4.50;99.90;;;5.36;81.50;99771.47;5051118;28;20650;-65
2021/01/19 09:16:23;;;;;;;2.30;2.10;;;4.60;99.90;;;5.42;81.52;99779.50;5051324;28;20213;-64
2021/01/19 09:18:56;;;;;;;2.83;1.93;;;4.50;99.90;;;5.34;81.22;99765.47;5051127;28;20236;-62
2021/01/19 09:21:25;;;;;;;5.03;2.40;;;4.50;99.90;;;5.35;80.94;99772.47;5051000;28;20214;-68
2021/01/19 09:23:53;;;;;;;4.27;2.03;;;4.50;99.90;;;5.37;81.38;99767.75;5050986;28;20205;-67
2021/01/19 09:26:21;;;;;;;5.40;2.50;;;4.50;99.90;;;5.43;82.36;99764.31;5050461;28;20219;-67
2021/01/19 09:28:51;;;;;;;3.23;2.10;;;4.50;99.90;;;5.37;79.77;99752.56;5051149;28;20643;-64
2021/01/19 09:31:20;;;;;;;4.37;2.23;;;4.50;99.90;;;5.41;80.38;99747.66;5050743;28;20268;-67
2021/01/19 09:33:50;;;;;;;3.03;1.87;;;4.50;99.90;;;5.43;80.45;99746.41;5050669;28;20308;-68
2021/01/19 09:36:19;;;;;;;4.00;2.00;;;4.50;99.90;;;5.48;80.79;99738.66;5051249;28;20514;-68
2021/01/19 09:38:51;;;;;;;5.03;2.30;;;4.60;99.90;;;5.47;80.68;99741.50;5050651;28;20207;-66
2021/01/19 09:41:24;;;;;;;4.30;2.33;;;4.60;99.90;;;5.33;81.27;99737.13;5050672;28;20184;-67
2021/01/19 09:43:56;;;;;;;6.37;2.10;;;4.60;99.90;;;5.36;79.70;99723.38;5032325;28;20577;-69
2021/01/19 09:46:27;;;;;;;3.87;2.30;;;4.50;99.90;;;5.34;79.74;99720.91;5030608;28;20216;-67
2021/01/19 09:48:59;;;;;;;4.53;2.20;;;4.50;99.90;;;5.19;80.34;99716.72;5030402;28;20650;-67
2021/01/19 09:51:29;;;;;;;6.97;2.30;;;4.50;99.90;;;5.10;81.41;99712.53;5030121;28;20664;-67
2021/01/19 09:53:58;;;;;;;4.43;2.53;;;4.40;99.90;;;5.13;81.45;99712.13;5030240;28;20266;-63
2021/01/19 09:56:27;;;;;;;2.93;2.03;;;4.40;99.90;;;5.25;79.90;99703.41;5031070;28;20207;-63
2021/01/19 09:59:04;;;;;;;3.10;2.40;;;4.40;99.90;;;5.05;81.70;99698.94;5030537;28;20216;-61
2021/01/19 10:01:32;;;;;;;3.50;2.00;;;4.40;99.90;;;5.14;81.36;99706.63;5030328;28;20188;-63
2021/01/19 10:04:00;;;;;;;4.90;2.20;;;4.30;99.90;;;5.28;80.67;99692.31;5030718;28;20257;-66
2021/01/19 10:06:28;;;;;;;4.27;2.10;;;4.40;99.90;;;5.28;80.67;99684.31;5029129;28;20226;-65
2021/01/19 10:08:56;;;;;;;4.23;2.43;;;4.40;99.90;;;5.23;81.36;99686.75;5030261;28;20237;-66
2021/01/19 10:11:31;;;;;;;4.43;2.30;;;4.40;99.90;;;5.15;81.08;99672.72;5030195;28;20296;-64
2021/01/19 10:14:14;;;;;;;3.83;2.10;;;4.30;99.90;;;5.28;81.08;99662.13;5030139;28;20729;-64
2021/01/19 10:16:46;;;;;;;4.27;2.50;;;4.30;99.90;;;5.34;81.44;99656.00;5030014;28;20188;-63
2021/01/19 10:19:20;;;;;;;5.23;2.10;;;4.40;99.90;;;5.37;80.20;99650.25;5030232;28;20220;-63
2021/01/19 10:21:53;;;;;;;6.13;2.50;;;4.40;99.90;;;5.27;80.13;99639.13;5029754;28;20234;-63
2021/01/19 10:24:21;;;;;;;3.00;2.23;;;4.40;99.90;;;5.30;79.89;99630.69;5030206;28;20481;-63
2021/01/19 10:27:01;;;;;;;5.80;2.60;;;4.40;99.90;;;5.24;81.38;99627.00;5029980;28;20311;-62
2021/01/19 10:29:36;;;;;;;5.07;2.43;;;4.40;99.90;;;5.16;82.26;99621.81;5030286;28;20188;-62
2021/01/19 10:32:06;;;;;;;3.47;2.60;;;4.40;99.90;;;5.06;84.14;99624.03;5029826;28;20247;-63
2021/01/19 10:34:35;;;;;;;4.43;2.50;;;4.30;99.90;;;4.74;87.48;99616.66;5029806;28;20191;-68
2021/01/19 10:37:03;;;;;;;3.83;2.50;;;4.20;99.90;;;4.38;90.47;99611.47;5029580;28;20234;-69
2021/01/19 10:39:31;;;;;;;6.53;2.60;;;4.00;99.90;;;4.22;92.49;99606.44;5030062;28;20360;-70
2021/01/19 10:41:59;;;;;;;3.53;2.30;;;3.80;99.90;;;4.18;94.32;99597.16;5032675;28;20661;-69
2021/01/19 10:44:27;;;;;;;6.87;2.70;;;3.60;99.90;;;4.06;95.53;99596.03;5049459;28;20209;-69
2021/01/19 10:47:02;;;;;;;3.63;2.50;;;3.50;99.90;;;4.04;95.59;99582.09;5049311;28;20854;-68
2021/01/19 10:49:32;;;;;;;7.20;2.83;;;3.40;99.90;;;4.04;96.72;99579.44;5049613;28;20191;-62